Home > Products > Valid Products > TAF

000
FTUS41 KRLX 180500
TAFCKB
TAF
KCKB 180525Z 1806/1906 13005KT P6SM SCT250
     FM181600 21005KT P6SM SCT250
     FM190000 00000KT P6SM SCT250=



000
FTUS41 KRLX 180500
TAFPKB
TAF
KPKB 180525Z 1806/1906 15005KT P6SM SCT250
     FM181600 20005KT P6SM SCT250
     FM190000 00000KT P6SM SCT250=



000
FTUS41 KRLX 180500
TAFHTS
TAF
KHTS 180525Z 1806/1906 14005KT P6SM SCT250
     FM181600 24005KT P6SM SCT250
     FM190000 00000KT P6SM SCT250=



000
FTUS41 KRLX 180500
TAFEKN
TAF
KEKN 180525Z 1806/1906 13004KT P6SM SCT250
     FM181600 25005KT P6SM SCT250
     FM190000 00000KT P6SM SCT250=



000
FTUS41 KRLX 180500
TAFBKW
TAF
KBKW 180525Z 1806/1906 14008G18KT P6SM SCT250
     FM181500 16006KT P6SM BKN220
     FM190000 00000KT P6SM BKN220=



000
FTUS41 KRLX 180500
TAFCRW
TAF
KCRW 180525Z 1806/1906 15005KT P6SM SCT250
     FM181600 21005KT P6SM SCT250
     FM190000 00000KT P6SM SCT250=



000
FTUS41 KRLX 180500 AAB
TAFBKW
TAF AMD
KBKW 180501Z 1805/1824 14010G18KT P6SM SCT250
     FM181600 18003KT P6SM BKN150=



000
FTUS41 KRLX 180200 AAA
TAFHTS
TAF AMD
KHTS 180213Z 1802/1824 00000KT P6SM SKC
     FM181400 00000KT P6SM SCT050
     FM181700 23005KT P6SM SCT150
     FM182200 29004KT P6SM BKN050=



000
FTUS41 KRLX 180200 AAA
TAFCRW
TAF AMD
KCRW 180213Z 1802/1824 13007G16KT P6SM SKC
     FM180330 15004KT P6SM SKC
     FM180600 00000KT P6SM SKC
     FM181600 26004KT P6SM BKN140=



000
FTUS41 KRLX 180200 AAA
TAFBKW
TAF AMD
KBKW 180213Z 1802/1824 13006KT P6SM SKC
     FM181000 15004KT P6SM SCT035=



000
FTUS41 KRLX 180200 AAA
TAFCKB
TAF AMD
KCKB 180213Z 1802/1824 13006G16KT P6SM SKC
     FM180400 VRB03KT P6SM SKC
     FM181500 15004KT P6SM SCT200
     FM182100 26006KT P6SM BKN060=



000
FTUS41 KRLX 180200 AAA
TAFPKB
TAF AMD
KPKB 180213Z 1802/1824 VRB03KT P6SM SKC
     FM181500 20004KT P6SM SCT060
     FM182100 26008KT P6SM SCT050
     FM182200 27007KT P6SM BKN050=



000
FTUS41 KRLX 180200 AAA
TAFEKN
TAF AMD
KEKN 180213Z 1802/1824 15004KT P6SM SKC
     FM181000 00000KT 6SM BR SCT250
     FM181700 26004KT P6SM BKN150
     FM182000 31008KT P6SM BKN150=



000
FTUS41 KRLX 172300
TAFEKN
TAF
KEKN 172325Z 1800/1824 15009G17KT P6SM SKC
     FM180100 15004KT P6SM SKC
     FM181000 00000KT 6SM BR SCT250
     FM181700 26004KT P6SM BKN150
     FM182000 31008KT P6SM BKN150=



000
FTUS41 KRLX 172300
TAFPKB
TAF
KPKB 172325Z 1800/1824 VRB03KT P6SM SKC
     FM181500 20004KT P6SM SCT060
     FM182100 26008KT P6SM SCT050
     FM182200 27007KT P6SM BKN050=



000
FTUS41 KRLX 172300
TAFCKB
TAF
KCKB 172325Z 1800/1824 10004KT P6SM SKC
     FM180500 00000KT P6SM SKC
     FM181500 15004KT P6SM SCT200
     FM182100 26006KT P6SM BKN060=



000
FTUS41 KRLX 172300
TAFBKW
TAF
KBKW 172325Z 1800/1824 14008G18KT P6SM SKC
     FM180200 17006KT P6SM SKC
     FM181000 15004KT P6SM SCT035=



000
FTUS41 KRLX 172300
TAFHTS
TAF
KHTS 172325Z 1800/1824 00000KT P6SM SKC
     FM181400 00000KT P6SM SCT050
     FM181700 23005KT P6SM SCT150
     FM182200 29004KT P6SM BKN050=



000
FTUS41 KRLX 172300
TAFCRW
TAF
KCRW 172325Z 1800/1824 16005KT P6SM SKC
     FM180600 00000KT P6SM SKC
     FM181600 26004KT P6SM BKN140=



000
FTUS41 KRLX 172200 AAA
TAFEKN
TAF AMD
KEKN 172258Z 1723/1818 14011G18KT P6SM SKC
     FM180300 00000KT P6SM SKC
     FM181000 00000KT P6SM SCT250
     FM181700 26004KT P6SM BKN150=



000
FTUS41 KRLX 171700
TAFCRW
TAF
KCRW 171720Z 1718/1818 18006KT P6SM SKC
     FM180300 00000KT P6SM SKC
     FM181400 26004KT P6SM SCT150
     FM181700 26004KT P6SM BKN140=



000
FTUS41 KRLX 171700
TAFHTS
TAF
KHTS 171720Z 1718/1818 20007KT P6SM SKC
     FM172300 VRB03KT P6SM SKC
     FM181400 23004KT P6SM SCT050 SCT150=



000
FTUS41 KRLX 171700
TAFPKB
TAF
KPKB 171720Z 1718/1818 20007KT P6SM SKC
     FM180000 VRB03KT P6SM SKC
     FM181500 20004KT P6SM SCT060=



000
FTUS41 KRLX 171700
TAFBKW
TAF
KBKW 171720Z 1718/1818 12011G17KT P6SM SKC
     FM172300 15004KT P6SM SKC
     FM181200 VRB03KT P6SM SCT200=



000
FTUS41 KRLX 171700
TAFCKB
TAF
KCKB 171720Z 1718/1818 17007KT P6SM SKC
     FM180200 VRB03KT P6SM SKC=



000
FTUS41 KRLX 171700
TAFEKN
TAF
KEKN 171720Z 1718/1818 17006KT P6SM SKC
     FM180300 00000KT P6SM SKC
     FM181000 00000KT P6SM SCT250
     FM181700 26004KT P6SM BKN150=



000
FTUS41 KRLX 171500 AAA
TAFBKW
TAF AMD
KBKW 171543Z 1716/1812 14010G19KT P6SM FEW250
     FM172000 14006KT P6SM SCT250=



000
FTUS41 KRLX 171500 AAA
TAFCKB
TAF AMD
KCKB 171542Z 1716/1812 12005KT P6SM FEW250=



000
FTUS41 KRLX 171500 AAA
TAFHTS
TAF AMD
KHTS 171542Z 1716/1812 15006KT P6SM SCT250=



000
FTUS41 KRLX 171500 AAA
TAFCRW
TAF AMD
KCRW 171542Z 1716/1812 15007KT P6SM FEW250=



000
FTUS41 KRLX 171500 AAA
TAFEKN
TAF AMD
KEKN 171542Z 1716/1812 14007KT P6SM FEW250
     FM180900 VRB03KT 6SM BR SCT200=



000
FTUS41 KRLX 171500 AAA
TAFPKB
TAF AMD
KPKB 171542Z 1716/1812 13005KT P6SM SCT250=



000
FTUS41 KRLX 171100
TAFHTS
TAF
KHTS 171126Z 1712/1812 15006KT P6SM SCT250=



000
FTUS41 KRLX 171100
TAFBKW
TAF
KBKW 171126Z 1712/1812 14010G19KT P6SM FEW250
     FM172000 14006KT P6SM SCT250=



000
FTUS41 KRLX 171100
TAFCKB
TAF
KCKB 171126Z 1712/1812 12005KT P6SM FEW250=



000
FTUS41 KRLX 171100
TAFEKN
TAF
KEKN 171126Z 1712/1812 14007KT P6SM FEW250
     FM180900 VRB03KT 6SM BR SCT200=



000
FTUS41 KRLX 171100
TAFCRW
TAF
KCRW 171126Z 1712/1812 15007KT P6SM FEW250=



000
FTUS41 KRLX 171100
TAFPKB
TAF
KPKB 171126Z 1712/1812 13005KT P6SM SCT250=



000
FTUS41 KRLX 170800 AAA
TAFBKW
TAF AMD
KBKW 170858Z 1709/1806 13013G20KT P6SM SKC
     FM171500 14009KT P6SM SKC=



000
FTUS41 KRLX 170800 AAA
TAFPKB
TAF AMD
KPKB 170858Z 1709/1806 10005KT P6SM FEW250=



000
FTUS41 KRLX 170800 AAA
TAFHTS
TAF AMD
KHTS 170858Z 1709/1806 08006KT P6SM FEW250=



000
FTUS41 KRLX 170800 AAA
TAFEKN
TAF AMD
KEKN 170858Z 1709/1806 14007KT P6SM SKC=



000
FTUS41 KRLX 170800 AAA
TAFCKB
TAF AMD
KCKB 170858Z 1709/1806 12007KT P6SM FEW250=



000
FTUS41 KRLX 170800 AAA
TAFCRW
TAF AMD
KCRW 170858Z 1709/1806 08006KT P6SM FEW250=



000
FTUS41 KRLX 170500
TAFPKB
TAF
KPKB 170533Z 1706/1806 10005KT P6SM FEW250=



000
FTUS41 KRLX 170500
TAFBKW
TAF
KBKW 170533Z 1706/1806 14013G23KT P6SM SKC
     FM171600 14009KT P6SM SKC=



000
FTUS41 KRLX 170500
TAFHTS
TAF
KHTS 170533Z 1706/1806 08006KT P6SM FEW250=



000
FTUS41 KRLX 170500
TAFEKN
TAF
KEKN 170533Z 1706/1806 14008G15KT P6SM SKC
     FM171700 17007KT P6SM SKC=



000
FTUS41 KRLX 170500
TAFCKB
TAF
KCKB 170533Z 1706/1806 12007KT P6SM FEW250=



000
FTUS41 KRLX 170500
TAFCRW
TAF
KCRW 170533Z 1706/1806 08006KT P6SM FEW250=



000
FTUS41 KRLX 170200 AAA
TAFEKN
TAF AMD
KEKN 170226Z 1702/1724 VRB04KT P6SM SKC=



000
FTUS41 KRLX 170200 AAA
TAFCRW
TAF AMD
KCRW 170226Z 1702/1724 05004KT P6SM SKC
     FM170800 00000KT P6SM SKC
     FM171300 16004KT P6SM SKC=



000
FTUS41 KRLX 170200 AAA
TAFBKW
TAF AMD
KBKW 170226Z 1702/1724 15006KT P6SM SKC
     FM170600 14011G17KT P6SM SKC=



000
FTUS41 KRLX 170200 AAA
TAFHTS
TAF AMD
KHTS 170226Z 1702/1724 09005KT P6SM SKC
     FM171800 16007KT P6SM SKC
     FM172300 VRB03KT P6SM SKC=



000
FTUS41 KRLX 170200 AAA
TAFCKB
TAF AMD
KCKB 170226Z 1702/1724 04006KT P6SM SKC
     FM171100 00000KT P6SM SKC
     FM171400 09004KT P6SM SKC=



000
FTUS41 KRLX 170200 AAA
TAFPKB
TAF AMD
KPKB 170226Z 1702/1724 VRB04KT P6SM SKC
     FM171100 00000KT P6SM SKC
     FM171400 14004KT P6SM SKC=



000
FTUS41 KRLX 162300
TAFEKN
TAF
KEKN 162334Z 1700/1724 VRB04KT P6SM SKC=



000
FTUS41 KRLX 162300
TAFPKB
TAF
KPKB 162334Z 1700/1724 VRB04KT P6SM SKC
     FM171100 00000KT P6SM SKC
     FM171400 14004KT P6SM SKC=



000
FTUS41 KRLX 162300
TAFHTS
TAF
KHTS 162334Z 1700/1724 09005KT P6SM SKC
     FM171800 16007KT P6SM SKC
     FM172300 VRB03KT P6SM SKC=



000
FTUS41 KRLX 162300
TAFBKW
TAF
KBKW 162334Z 1700/1724 15006KT P6SM SKC
     FM170600 14011G17KT P6SM SKC=



000
FTUS41 KRLX 162300
TAFCKB
TAF
KCKB 162334Z 1700/1724 04006KT P6SM SKC
     FM171100 00000KT P6SM SKC
     FM171400 09004KT P6SM SKC=



000
FTUS41 KRLX 162300
TAFCRW
TAF
KCRW 162334Z 1700/1724 05004KT P6SM SKC
     FM170800 00000KT P6SM SKC
     FM171300 16004KT P6SM SKC=



000
FTUS41 KRLX 161700
TAFBKW
TAF
KBKW 161720Z 1618/1718 04006KT P6SM SKC
     FM170400 13010G15KT P6SM SKC=



000
FTUS41 KRLX 161700
TAFCKB
TAF
KCKB 161720Z 1618/1718 04005KT P6SM SKC
     FM170300 00000KT P6SM SKC
     FM171400 09004KT P6SM SKC=



000
FTUS41 KRLX 161700
TAFEKN
TAF
KEKN 161720Z 1618/1718 VRB04KT P6SM SKC
     FM171700 16007KT P6SM SKC=



000
FTUS41 KRLX 161700
TAFCRW
TAF
KCRW 161720Z 1618/1718 04005KT P6SM SKC
     FM170200 00000KT P6SM SKC
     FM171300 16004KT P6SM SKC=



000
FTUS41 KRLX 161700
TAFHTS
TAF
KHTS 161720Z 1618/1718 08005KT P6SM SKC
     FM170200 00000KT P6SM SKC
     FM171400 13004KT P6SM SKC=



000
FTUS41 KRLX 161700
TAFPKB
TAF
KPKB 161720Z 1618/1718 09007KT P6SM SKC
     FM170300 VRB03KT P6SM SKC=



000
FTUS41 KRLX 161500 AAA
TAFBKW
TAF AMD
KBKW 161535Z 1616/1712 01006KT P6SM SKC
     FM170100 13010G15KT P6SM SKC=



000
FTUS41 KRLX 161500 AAB
TAFEKN
TAF AMD
KEKN 161535Z 1616/1712 34007KT P6SM FEW035
      TEMPO 1616/1617 BKN030
     FM162200 09007KT P6SM SKC
     FM170200 13008KT P6SM SKC=



000
FTUS41 KRLX 161500 AAA
TAFCRW
TAF AMD
KCRW 161534Z 1616/1712 04004KT P6SM SKC
     FM170300 15007KT P6SM SKC=



000
FTUS41 KRLX 161500 AAB
TAFCKB
TAF AMD
KCKB 161534Z 1616/1712 02004KT P6SM SCT030
     FM161700 VRB03KT P6SM SKC=



000
FTUS41 KRLX 161500 AAA
TAFPKB
TAF AMD
KPKB 161534Z 1616/1712 VRB03KT P6SM SKC=



000
FTUS41 KRLX 161500 AAA
TAFHTS
TAF AMD
KHTS 161534Z 1616/1712 05004KT P6SM SKC=



000
FTUS41 KRLX 161300 AAA
TAFCKB
TAF AMD
KCKB 161342Z 1614/1712 02004KT P6SM BKN025
     FM161500 02004KT P6SM SCT030
     FM161700 VRB03KT P6SM SKC=



000
FTUS41 KRLX 161200 AAA
TAFEKN
TAF AMD
KEKN 161236Z 1613/1712 34005KT P6SM BKN028
     FM161400 34007KT P6SM FEW035
     FM162200 09007KT P6SM SKC
     FM170200 13008KT P6SM SKC=



000
FTUS41 KRLX 161100
TAFBKW
TAF
KBKW 161120Z 1612/1712 01006KT P6SM SKC
     FM170100 13010G15KT P6SM SKC=



000
FTUS41 KRLX 161100
TAFHTS
TAF
KHTS 161120Z 1612/1712 05004KT P6SM SKC=



000
FTUS41 KRLX 161100
TAFCKB
TAF
KCKB 161120Z 1612/1712 02004KT P6SM SKC=



000
FTUS41 KRLX 161100
TAFPKB
TAF
KPKB 161120Z 1612/1712 VRB03KT P6SM SKC=



000
FTUS41 KRLX 161100
TAFEKN
TAF
KEKN 161120Z 1612/1712 34007KT P6SM FEW035
     FM162200 09007KT P6SM SKC
     FM170200 13008KT P6SM SKC=



000
FTUS41 KRLX 161100
TAFCRW
TAF
KCRW 161120Z 1612/1712 04004KT P6SM SKC
     FM170300 15007KT P6SM SKC=



000
FTUS41 KRLX 160900 AAA
TAFEKN
TAF AMD
KEKN 160918Z 1609/1706 31006KT P6SM BKN035
     FM161300 35006KT P6SM FEW045=



000
FTUS41 KRLX 160900 AAA
TAFCRW
TAF AMD
KCRW 160918Z 1609/1706 00000KT P6SM SKC
     FM170200 11008KT P6SM SKC=



000
FTUS41 KRLX 160900 AAA
TAFCKB
TAF AMD
KCKB 160918Z 1609/1706 00000KT P6SM BKN040
     FM161300 02005KT P6SM FEW050=



000
FTUS41 KRLX 160900 AAA
TAFPKB
TAF AMD
KPKB 160918Z 1609/1706 34004KT P6SM SKC=



000
FTUS41 KRLX 160900 AAA
TAFBKW
TAF AMD
KBKW 160918Z 1609/1706 33010KT P6SM SKC
     FM161700 07006KT P6SM SKC
     FM170100 13010G15KT P6SM SKC=



000
FTUS41 KRLX 160900 AAA
TAFHTS
TAF AMD
KHTS 160918Z 1609/1706 00000KT P6SM SKC
     FM161400 07007KT P6SM SKC=



000
FTUS41 KRLX 160500 RRA
TAFCRW
TAF
KCRW 160542Z 1606/1706 VRB03KT P6SM FEW045
     FM160900 VRB03KT P6SM SKC
     FM170200 11008KT P6SM SKC=



000
FTUS41 KRLX 160500 RRA
TAFCKB
TAF
KCKB 160542Z 1606/1706 33007KT P6SM BKN040
     FM161300 02005KT P6SM FEW050=



000
FTUS41 KRLX 160500 RRA
TAFPKB
TAF
KPKB 160542Z 1606/1706 34004KT P6SM SKC=



000
FTUS41 KRLX 160500 RRA
TAFEKN
TAF
KEKN 160542Z 1606/1706 32011G21KT 6SM -SHSN BKN030
     FM160800 32009KT P6SM BKN035
     FM161300 35006KT P6SM FEW045=



000
FTUS41 KRLX 160500 RRA
TAFBKW
TAF
KBKW 160542Z 1606/1706 35009G17KT P6SM BKN035
     FM161000 35006KT P6SM FEW035
     FM170100 13010G15KT P6SM SKC=



000
FTUS41 KRLX 160500 RRA
TAFHTS
TAF
KHTS 160542Z 1606/1706 VRB03KT P6SM SKC
     FM161400 07007KT P6SM SKC=



000
FTUS41 KRLX 160200 AAB
TAFCKB
TAF AMD
KCKB 160212Z 1602/1624 30012KT P6SM BKN035
     FM160400 33009KT P6SM BKN035
     FM160800 VRB03KT P6SM SCT040
     FM161100 00000KT P6SM SKC
     FM161800 04005KT P6SM SKC=



000
FTUS41 KRLX 160200 AAA
TAFCRW
TAF AMD
KCRW 160211Z 1602/1624 30009KT P6SM BKN045
     FM160400 34005KT P6SM SCT045
     FM160600 00000KT P6SM SKC
     FM161600 06004KT P6SM SKC=



000
FTUS41 KRLX 160100 AAA
TAFPKB
TAF AMD
KPKB 160130Z 1602/1624 32009KT P6SM BKN045
     FM160300 34005KT P6SM SCT045
     FM160400 35004KT P6SM SKC
     FM160600 00000KT P6SM SKC
     FM161000 00000KT P6SM SKC
     FM161700 07005KT P6SM SKC=



000
FTUS41 KRLX 160100 AAA
TAFHTS
TAF AMD
KHTS 160129Z 1601/1624 32007KT P6SM SCT050
     FM160300 34004KT P6SM SKC
     FM160500 00000KT P6SM SKC
     FM161600 08005KT P6SM SKC=



000
FTUS41 KRLX 160100 AAA
TAFBKW
TAF AMD
KBKW 160121Z 1601/1624 32012G22KT P6SM OVC035
     FM160300 33009KT P6SM BKN035
     FM160800 VRB03KT P6SM BKN035
     FM161200 00000KT P6SM SKC
     FM161600 02005KT P6SM SKC
     FM162100 12007KT P6SM SKC=



000
FTUS41 KRLX 160100 AAB
TAFEKN
TAF AMD
KEKN 160105Z 1601/1624 31012G22KT P6SM -SN OVC035
     FM160300 32008KT P6SM BKN035
     FM160800 34005KT P6SM BKN035
     FM161000 00000KT P6SM BKN035
     FM161400 00000KT P6SM SKC
     FM161900 03005KT P6SM SKC=



000
FTUS41 KRLX 160000 AAA
TAFEKN
TAF AMD
KEKN 160026Z 1600/1624 31009KT P6SM -SN OVC015
     FM160200 32008KT P6SM BKN025
     FM160800 34005KT P6SM BKN025
     FM161000 00000KT P6SM BKN025
     FM161200 00000KT P6SM BKN035
     FM161400 00000KT P6SM SKC
     FM161900 03005KT P6SM SKC=



000
FTUS41 KRLX 160000 AAA
TAFCKB
TAF AMD
KCKB 160025Z 1600/1624 30012G20KT P6SM BKN035
     FM160300 33009KT P6SM BKN035
     FM160800 VRB03KT P6SM BKN030
     FM161100 00000KT P6SM BKN035
     FM161300 00000KT P6SM SKC
     FM161800 04005KT P6SM SKC=



000
FTUS41 KRLX 152300
TAFCKB
TAF
KCKB 152324Z 1600/1624 30012G20KT P6SM BKN030
     FM160300 33009KT P6SM BKN025
     FM160800 VRB03KT P6SM BKN025
     FM161100 00000KT P6SM BKN035
     FM161300 00000KT P6SM SKC
     FM161800 04005KT P6SM SKC=



000
FTUS41 KRLX 152300
TAFBKW
TAF
KBKW 152324Z 1600/1624 32012G22KT P6SM OVC020
     FM160300 33009KT P6SM BKN020
     FM160800 VRB03KT P6SM BKN025
     FM161200 00000KT P6SM SKC
     FM161600 02005KT P6SM SKC
     FM162100 12007KT P6SM SKC=



000
FTUS41 KRLX 152300
TAFEKN
TAF
KEKN 152324Z 1600/1624 31009KT P6SM OVC025
     FM160800 34005KT P6SM BKN025
     FM161000 00000KT P6SM BKN025
     FM161200 00000KT P6SM BKN035
     FM161400 00000KT P6SM SKC
     FM161900 03005KT P6SM SKC=



000
FTUS41 KRLX 152300
TAFHTS
TAF
KHTS 152324Z 1600/1624 32008KT P6SM BKN050
     FM160300 34004KT P6SM BKN045
     FM160500 00000KT P6SM SKC
     FM161600 08005KT P6SM SKC=



000
FTUS41 KRLX 152300
TAFPKB
TAF
KPKB 152324Z 1600/1624 32009KT P6SM BKN045
     FM160400 35004KT P6SM BKN045
     FM160600 00000KT P6SM BKN040
     FM161000 00000KT P6SM SKC
     FM161700 07005KT P6SM SKC=



000
FTUS41 KRLX 152300
TAFCRW
TAF
KCRW 152324Z 1600/1624 30009KT P6SM BKN045
     FM160300 34005KT P6SM BKN045
     FM160500 00000KT P6SM BKN040
     FM161000 00000KT P6SM SKC
     FM161600 06004KT P6SM SKC=



000
FTUS41 KRLX 152200 AAC
TAFCKB
TAF AMD
KCKB 152206Z 1522/1618 29012G18KT P6SM OVC015
     FM152300 29011G16KT P6SM OVC025
     FM160000 30013G19KT P6SM OVC035
     FM160200 31009KT P6SM BKN100
     FM160400 31006KT P6SM SCT200
     FM160800 00000KT P6SM SKC
     FM161500 01004KT P6SM SKC=



000
FTUS41 KRLX 152100 AAE
TAFBKW
TAF AMD
KBKW 152158Z 1522/1618 33012KT 5SM -SN OVC015
      TEMPO 1522/1523 1SM -SN BKN007
     FM152300 32012KT P6SM OVC025
     FM160200 32010KT P6SM BKN040
     FM160300 33009KT P6SM SCT150
     FM160500 33008KT P6SM SCT250
     FM161500 02007KT P6SM SKC=



000
FTUS41 KRLX 152100 AAA
TAFPKB
TAF AMD
KPKB 152113Z 1521/1618 31010G19KT P6SM BKN035
     FM160200 33006KT P6SM SCT100
     FM160400 33004KT P6SM SKC
     FM160600 00000KT P6SM SKC
     FM161700 09004KT P6SM SKC=



000
FTUS41 KRLX 152100 AAD
TAFBKW
TAF AMD
KBKW 152112Z 1521/1618 33012KT P6SM OVC015
     FM152200 32012KT P6SM OVC025
     FM152300 32010KT P6SM BKN040
     FM160300 33009KT P6SM SCT150
     FM160500 33008KT P6SM SCT250
     FM161500 02007KT P6SM SKC=



000
FTUS41 KRLX 152000 AAC
TAFBKW
TAF AMD
KBKW 152004Z 1520/1618 31009KT 3SM -SHSN SCT006 OVC012
      TEMPO 1520/1521 1/2SM SHSN BKN006
     FM152100 32013G19KT P6SM -SHSN OVC025
     FM152200 32012G18KT 6SM -SHSN OVC035
     FM152300 32012G18KT P6SM BKN040
     FM160300 33009KT P6SM SCT150
     FM160500 33008KT P6SM SCT250
     FM161500 02007KT P6SM SKC=



000
FTUS41 KRLX 152000 AAB
TAFCKB
TAF AMD
KCKB 152003Z 1520/1618 30010KT 3SM -SHSN OVC015
      TEMPO 1520/1521 1/2SM SN BKN008
     FM152100 29011G16KT P6SM OVC015
     FM152200 29011G16KT P6SM OVC025
     FM152300 30013G19KT P6SM OVC040
     FM160200 31009KT P6SM BKN100
     FM160400 31006KT P6SM SCT200
     FM160800 00000KT P6SM SKC
     FM161500 01004KT P6SM SKC=



000
FTUS41 KRLX 152000 AAB
TAFHTS
TAF AMD
KHTS 152002Z 1520/1618 32009KT P6SM BKN035
     FM152300 32009KT P6SM SCT040
     FM160200 33005KT P6SM FEW100
     FM160400 00000KT P6SM SKC
     FM161400 07005KT P6SM SKC=



000
FTUS41 KRLX 152000 AAA
TAFCRW
TAF AMD
KCRW 152000Z 1520/1618 30009KT P6SM BKN015
     FM152100 30010KT P6SM BKN025
     FM152200 32012G17KT P6SM BKN040
     FM160000 32009KT P6SM SCT040
     FM160300 32005KT P6SM FEW140
     FM160500 33004KT P6SM SKC
     FM160700 00000KT P6SM SKC
     FM161400 05004KT P6SM SKC=



000
FTUS41 KRLX 151900 AAB
TAFBKW
TAF AMD
KBKW 151913Z 1519/1618 31009KT 3SM -SHSN SCT006 OVC012
      TEMPO 1519/1521 1SM -SHSN BKN006
     FM152100 32013G19KT P6SM -SHSN OVC025
     FM152200 32012G18KT 6SM -SHSN OVC035
     FM152300 32012G18KT P6SM BKN040
     FM160300 33009KT P6SM SCT150
     FM160500 33008KT P6SM SCT250
     FM161500 02007KT P6SM SKC=



000
FTUS41 KRLX 151900 AAB
TAFEKN
TAF AMD
KEKN 151909Z 1519/1618 30008KT 3SM -SHSN SCT008 OVC025
      TEMPO 1519/1522 2SM -SN BKN008
     FM152300 31015G23KT 6SM -SHSN OVC030
     FM160100 31013G18KT P6SM BKN050
     FM160800 32006KT P6SM SCT250=



000
FTUS41 KRLX 151900 AAA
TAFCKB
TAF AMD
KCKB 151909Z 1519/1618 30010KT 5SM -SHSN OVC015
      TEMPO 1519/1520 2SM -SN BKN008
     FM152000 29011G16KT P6SM OVC025
     FM152300 30013G19KT P6SM OVC040
     FM160200 31009KT P6SM BKN100
     FM160400 31006KT P6SM SCT200
     FM160800 00000KT P6SM SKC
     FM161500 01004KT P6SM SKC=



000
FTUS41 KRLX 151900 AAA
TAFHTS
TAF AMD
KHTS 151907Z 1519/1618 32009KT P6SM BKN018
     FM152000 32009KT P6SM BKN025
     FM152200 32009KT P6SM BKN035
     FM152300 32009KT P6SM SCT040
     FM160200 33005KT P6SM FEW100
     FM160400 00000KT P6SM SKC
     FM161400 07005KT P6SM SKC=



000
FTUS41 KRLX 151800 AAA
TAFEKN
TAF AMD
KEKN 151854Z 1519/1618 30008KT 3SM -SHSN SCT008 OVC025
     FM152000 31010G20KT 4SM -SHSN OVC025
     FM152300 31015G23KT 6SM -SHSN OVC030
     FM160100 31013G18KT P6SM BKN050
     FM160800 32006KT P6SM SCT250=



000
FTUS41 KRLX 151800 AAA
TAFBKW
TAF AMD
KBKW 151802Z 1518/1618 31008G18KT 1SM -SHSN SCT006 OVC015
      TEMPO 1518/1519 1/2SM SHSN BKN006
     FM151900 33012G19KT P6SM -SHSN OVC025
     FM152100 32013G19KT P6SM -SHSN OVC025
     FM152200 32012G18KT 6SM -SHSN OVC035
     FM152300 32012G18KT P6SM BKN040
     FM160300 33009KT P6SM SCT150
     FM160500 33008KT P6SM SCT250
     FM161500 02007KT P6SM SKC=



000
FTUS41 KRLX 151700 CCA
TAFEKN
TAF COR
KEKN 151742Z 1518/1618 30008KT 6SM -SHSN SCT008 OVC015
      TEMPO 1518/1519 BKN008
     FM152000 31010G20KT 4SM -SHSN OVC025
     FM152300 31015G23KT 6SM -SHSN OVC030
     FM160100 31013G18KT P6SM BKN050
     FM160800 32006KT P6SM SCT250=



000
FTUS41 KRLX 151700
TAFBKW
TAF
KBKW 151725Z 1518/1618 31008G18KT 3SM -SHSN SCT015 OVC025
      TEMPO 1518/1519 1SM -SHSN BKN015
     FM151900 33012G19KT P6SM -SHSN OVC025
     FM152100 32013G19KT P6SM -SHSN OVC025
     FM152200 32012G18KT 6SM -SHSN OVC035
     FM152300 32012G18KT P6SM BKN040
     FM160300 33009KT P6SM SCT150
     FM160500 33008KT P6SM SCT250
     FM161500 02007KT P6SM SKC=



000
FTUS41 KRLX 151700
TAFCRW
TAF
KCRW 151725Z 1518/1618 32008KT 5SM -SHSN SCT005 OVC015
      TEMPO 1518/1519 1SM -SHSN BKN005
     FM152000 32010KT P6SM BKN025
     FM152200 32012G17KT P6SM BKN040
     FM160000 32009KT P6SM SCT040
     FM160300 32005KT P6SM FEW140
     FM160500 33004KT P6SM SKC
     FM160700 00000KT P6SM SKC
     FM161400 05004KT P6SM SKC=



000
FTUS41 KRLX 151700
TAFPKB
TAF
KPKB 151725Z 1518/1618 32009G19KT 3SM -SHSN SCT005 BKN015
      TEMPO 1518/1519 1SM -SHSN
     FM151900 31010G19KT P6SM BKN025
     FM152200 31011G16KT 6SM BR BKN035
     FM152300 32010G15KT P6SM SCT040
     FM160200 33006KT P6SM SCT100
     FM160400 33004KT P6SM SKC
     FM160600 00000KT P6SM SKC
     FM161700 09004KT P6SM SKC=



000
FTUS41 KRLX 151700
TAFCKB
TAF
KCKB 151725Z 1518/1618 29010KT 5SM -SHSN OVC015
     FM152000 29011G16KT P6SM OVC025
     FM152300 30013G19KT P6SM OVC040
     FM160200 31009KT P6SM BKN100
     FM160400 31006KT P6SM SCT200
     FM160800 00000KT P6SM SKC
     FM161500 01004KT P6SM SKC=



000
FTUS41 KRLX 151700
TAFHTS
TAF
KHTS 151725Z 1518/1618 32006G16KT 5SM -SHSN BKN015
     FM151900 32009KT P6SM BKN025
     FM152200 32009KT P6SM BKN035
     FM152300 32009KT P6SM SCT040
     FM160200 33005KT P6SM FEW100
     FM160400 00000KT P6SM SKC
     FM161400 07005KT P6SM SKC=



000
FTUS41 KRLX 151700
TAFEKN
TAF
KEKN 151725Z 1518/1618 30008G18KT 6SM -SHRASN OVC015
     FM152000 31013G20KT 4SM -SHSN OVC025
     FM152300 31015G23KT 6SM -SHSN OVC030
     FM160100 31013G18KT P6SM BKN050
     FM160800 32006KT P6SM SCT250=



000
FTUS41 KRLX 151600 AAB
TAFCRW
TAF AMD
KCRW 151643Z 1517/1612 30011G19KT 5SM -SHSN BKN007 OVC015
      TEMPO 1517/1519 OVC015
     FM151900 32011G17KT P6SM OVC015
     FM152000 32010KT P6SM BKN025
     FM152100 32012G17KT P6SM BKN030
     FM160000 33010G15KT P6SM SCT040
     FM160300 31007KT P6SM SCT250=



000
FTUS41 KRLX 151400 AAB
TAFEKN
TAF AMD
KEKN 151429Z 1514/1612 28008G18KT 6SM -SHRA SCT008 OVC015
     FM151600 30012G22KT 6SM -SHRA OVC010
     FM151800 31013G23KT 6SM -SHRASN OVC015
     FM152000 31014G24KT 6SM -SHRASN OVC022
     FM152300 31015G25KT P6SM OVC030
     FM160700 31009KT P6SM SCT040=



000
FTUS41 KRLX 151300 AAA
TAFCRW
TAF AMD
KCRW 151325Z 1513/1612 30011G19KT 5SM -SHSN BKN008 OVC015
      TEMPO 1513/1515 OVC015
     FM151500 32011G17KT P6SM OVC015
     FM151900 32010KT P6SM BKN025
     FM152100 32012G17KT P6SM BKN030
     FM160000 33010G15KT P6SM SCT040
     FM160300 31007KT P6SM SCT250=



000
FTUS41 KRLX 151200 AAA
TAFEKN
TAF AMD
KEKN 151235Z 1513/1612 33008G21KT 6SM -SHRA SCT008 OVC015
      TEMPO 1513/1516 4SM -SHRA BKN008
     FM151600 30012G22KT 6SM -SHRA OVC010
     FM151800 31013G23KT 6SM -SHRASN OVC015
     FM152000 31014G24KT 6SM -SHRASN OVC022
     FM152300 31015G25KT P6SM OVC030
     FM160700 31009KT P6SM SCT040=



000
FTUS41 KRLX 151100 AAA
TAFBKW
TAF AMD
KBKW 151152Z 1512/1612 32010G22KT 6SM -SHRA SCT007 OVC015
      TEMPO 1512/1515 BKN007
     FM151500 32010G20KT 6SM -SHRASN OVC008
     FM151700 33011G20KT 6SM -SHRASN OVC015
     FM151800 33012G22KT 6SM -SHSN OVC018
     FM152200 32012G21KT P6SM -SHSN OVC024
     FM152300 32011G19KT P6SM BKN035
     FM160700 34008KT P6SM SCT035=



000
FTUS41 KRLX 151100
TAFCKB
TAF
KCKB 151122Z 1512/1612 29010G19KT 6SM -SHRA OVC015
      TEMPO 1512/1515 4SM -SHRASN OVC008
     FM151500 30012G20KT 3SM -SHRASN OVC008
     FM151700 29010G17KT P6SM -SHRASN OVC015
     FM151900 29011G16KT P6SM OVC025
     FM160200 31009G14KT P6SM BKN030
     FM160600 32006KT P6SM FEW040=



000
FTUS41 KRLX 151100
TAFCRW
TAF
KCRW 151122Z 1512/1612 32013G24KT 6SM -SHRA OVC007
      TEMPO 1512/1515 4SM -SHRA OVC015
     FM151500 31011G19KT 5SM -SHRASN OVC008
     FM151700 32011G17KT P6SM OVC015
     FM151900 32010KT P6SM BKN025
     FM152100 32012G17KT P6SM BKN030
     FM160000 33010G15KT P6SM SCT040
     FM160300 31007KT P6SM SCT250=



000
FTUS41 KRLX 151100
TAFHTS
TAF
KHTS 151122Z 1512/1612 30011G19KT 3SM -SHRASN OVC008
      TEMPO 1512/1514 OVC015
     FM151400 30009KT 4SM -SHSN OVC008
     FM151500 32008KT P6SM OVC010
     FM151700 32008KT P6SM BKN015
     FM151900 32009KT P6SM BKN025
     FM152100 32009KT P6SM SCT040=



000
FTUS41 KRLX 151100
TAFBKW
TAF
KBKW 151122Z 1512/1612 24009KT 6SM -SHRA SCT015 OVC035
     FM151230 30009G16KT 6SM -SHRA OVC015
     FM151500 32010G20KT 6SM -SHRASN OVC008
     FM151700 33011G20KT 6SM -SHRASN OVC015
     FM151800 33012G22KT 6SM -SHSN OVC018
     FM152200 32012G21KT P6SM -SHSN OVC024
     FM152300 32011G19KT P6SM BKN035
     FM160700 34008KT P6SM SCT035=



000
FTUS41 KRLX 151100
TAFPKB
TAF
KPKB 151122Z 1512/1612 31012G21KT 4SM -SHRASN OVC015
      TEMPO 1512/1514 OVC007
     FM151400 31011G19KT 4SM -SHSN OVC012
     FM151600 31011G18KT P6SM OVC015
     FM151900 31010G16KT P6SM BKN025
     FM152200 31011G16KT P6SM SCT040
     FM160300 33005KT P6SM FEW040=



000
FTUS41 KRLX 151100
TAFEKN
TAF
KEKN 151122Z 1512/1612 24007KT 6SM -SHRA SCT015 OVC050
     FM151300 29008KT 6SM -SHRA OVC015
      TEMPO 1514/1516 4SM -SHRA OVC007
     FM151600 30012G22KT 6SM -SHRA OVC010
     FM151800 31013G23KT 6SM -SHRASN OVC015
     FM152000 31014G24KT 6SM -SHRASN OVC022
     FM152300 31015G25KT P6SM OVC030
     FM160700 31009KT P6SM SCT040=



000
FTUS41 KRLX 150900 AAC
TAFCRW
TAF AMD
KCRW 150959Z 1510/1606 29012G22KT 6SM -SHRA OVC013
      TEMPO 1510/1512 OVC006
     FM151200 30012G22KT 5SM -SHRA OVC008
     FM151400 31011G19KT P6SM OVC008
     FM151700 32009G16KT P6SM OVC014
     FM151900 32010KT P6SM BKN018
     FM160000 33010G15KT P6SM SCT023
     FM160300 31007KT P6SM FEW250=



000
FTUS41 KRLX 150900 AAA
TAFEKN
TAF AMD
KEKN 150903Z 1509/1606 17007KT P6SM BKN040
     FM151100 26007KT 5SM -SHRA OVC018
     FM151200 27007G15KT 4SM -SHRA OVC010
     FM151400 29011G20KT 2SM -SHRA OVC008
     FM151700 30012G22KT 4SM -SHRA OVC015
     FM151900 31013G20KT 6SM -SHRA OVC020
     FM152300 31015G23KT P6SM OVC025=



000
FTUS41 KRLX 150900 AAB
TAFHTS
TAF AMD
KHTS 150903Z 1509/1606 32011G21KT 5SM -SHRA OVC009
     FM151300 30010G17KT P6SM OVC012
     FM151700 32010KT P6SM BKN022
     FM152100 32009KT P6SM SCT026
     FM160200 34005KT P6SM FEW250=



000
FTUS41 KRLX 150900 AAA
TAFCKB
TAF AMD
KCKB 150903Z 1509/1606 20008KT P6SM BKN060
     FM150930 26010G15KT P6SM OVC030
     FM151100 28012G20KT 5SM -SHRA OVC016
     FM151400 29012G21KT 4SM -SHRA OVC009
     FM151700 29010G18KT 5SM -SHRA OVC012
     FM152100 29011G17KT P6SM BKN023
     FM160400 31007KT P6SM SCT028=



000
FTUS41 KRLX 150900 AAB
TAFPKB
TAF AMD
KPKB 150903Z 1509/1606 32012G22KT 5SM -SHRA OVC010
     FM151400 31010G19KT P6SM OVC009
     FM151600 31009KT P6SM OVC015
     FM151700 31009KT P6SM BKN020
     FM152200 32010G16KT P6SM SCT025
     FM160300 33005KT P6SM SCT150=



000
FTUS41 KRLX 150900 AAA
TAFBKW
TAF AMD
KBKW 150903Z 1509/1606 23009KT 6SM -SHRA BKN050
     FM151100 30011G19KT 5SM -SHRA OVC016
     FM151400 31011G20KT 5SM -SHRA OVC009
     FM151700 33011G20KT 6SM -SHRA OVC010
     FM151900 33012G21KT 6SM -SHRASN OVC015
     FM152000 33013G22KT 6SM -SHRASN OVC025
     FM152300 32012G20KT P6SM BKN030=



000
FTUS41 KRLX 150900 AAB
TAFCRW
TAF AMD
KCRW 150903Z 1509/1606 29012G22KT 6SM -SHRA OVC020
     FM151100 30012G22KT 5SM -SHRA OVC010
     FM151400 31011G19KT P6SM OVC008
     FM151700 32009G16KT P6SM OVC014
     FM151900 32010KT P6SM BKN018
     FM160000 33010G15KT P6SM SCT023
     FM160300 31007KT P6SM FEW250=



000
FTUS41 KRLX 150800 AAA
TAFCRW
TAF AMD
KCRW 150802Z 1508/1606 27012G22KT 6SM -SHRA OVC020
     FM151100 30012G22KT 5SM -SHRA OVC010
     FM151400 31011G19KT P6SM OVC008
     FM151700 32009G16KT P6SM OVC014
     FM151900 32010KT P6SM BKN018
     FM160000 33010G15KT P6SM SCT023
     FM160300 31007KT P6SM FEW250=



000
FTUS41 KRLX 150700 AAA
TAFPKB
TAF AMD
KPKB 150719Z 1507/1606 31012G22KT 6SM -SHRA OVC014
     FM150900 30012G21KT 5SM -SHRA OVC010
     FM151300 31010G19KT P6SM OVC009
     FM151600 31009KT P6SM OVC015
     FM151700 31009KT P6SM BKN020
     FM152200 32010G16KT P6SM SCT025
     FM160300 33005KT P6SM SCT150=



000
FTUS41 KRLX 150600 AAA
TAFHTS
TAF AMD
KHTS 150657Z 1507/1606 31013G23KT 6SM -SHRA SCT009 OVC013
      TEMPO 1507/1509 5SM -SHRA BKN009
     FM150900 30011G18KT 5SM -SHRA OVC009
     FM151300 30010G17KT P6SM OVC012
     FM151700 32010KT P6SM BKN022
     FM152100 32009KT P6SM SCT026
     FM160200 34005KT P6SM FEW250=



    US Dept of Commerce
    National Oceanic and Atmospheric Administration
    National Weather Service
    1325 East West Highway
    Silver Spring, MD 20910
    Page Author: NWS Internet Services Team
Disclaimer
Information Quality
Credits
Glossary
Privacy Policy
Freedom of Information Act (FOIA)
About Us
Career Opportunities